Time;durP1;ratioP1;P1;durP2;ratioP2;P2;SDS_P1;SDS_P2;PMS_P1;PMS_P2;Temp;Humidity;BMP_temperature;BMP_pressure;BME280_temperature;BME280_humidity;BME280_pressure;Samples;Min_cycle;Max_cycle;Signal;HPM_P1;HPM_P2
2023/02/28 00:01:34;;;;;;;11.17;7.53;;;-1.20;99.90;;;;;;5023937;28;20198;-59
2023/02/28 00:04:03;;;;;;;11.87;7.27;;;-1.30;99.90;;;;;;5032533;28;20598;-59
2023/02/28 00:06:31;;;;;;;18.43;7.93;;;-1.30;99.90;;;;;;5032807;28;20216;-59
2023/02/28 00:09:00;;;;;;;11.47;8.40;;;-1.30;99.90;;;;;;5029516;28;20276;-59
2023/02/28 00:11:28;;;;;;;13.07;8.63;;;-1.40;99.90;;;;;;5028066;28;20213;-59
2023/02/28 00:13:57;;;;;;;8.80;7.73;;;-1.40;99.90;;;;;;5028172;28;20194;-59
2023/02/28 00:16:25;;;;;;;10.77;8.50;;;-1.40;99.90;;;;;;5031873;28;20532;-59
2023/02/28 00:18:55;;;;;;;11.07;7.90;;;-1.40;99.90;;;;;;5017238;28;20225;-59
2023/02/28 00:21:26;;;;;;;11.30;8.10;;;-1.40;99.90;;;;;;5026692;28;20221;-59
2023/02/28 00:23:55;;;;;;;10.83;7.90;;;-1.50;99.90;;;;;;5024694;28;20312;-59
2023/02/28 00:26:23;;;;;;;14.10;8.47;;;-1.50;99.90;;;;;;5028494;28;20229;-59
2023/02/28 00:28:53;;;;;;;12.53;7.97;;;-1.50;99.90;;;;;;5023773;28;20194;-59
2023/02/28 00:31:22;;;;;;;10.97;8.10;;;-1.50;99.90;;;;;;5032110;28;20194;-58
2023/02/28 00:33:51;;;;;;;12.33;7.90;;;-1.50;99.90;;;;;;5030916;28;20225;-58
2023/02/28 00:36:22;;;;;;;13.40;8.17;;;-1.50;99.90;;;;;;5023167;28;20272;-59
2023/02/28 00:38:50;;;;;;;17.30;8.57;;;-1.60;99.90;;;;;;5022191;28;20221;-58
2023/02/28 00:41:19;;;;;;;14.07;8.20;;;-1.60;99.90;;;;;;5029172;28;20244;-58
2023/02/28 00:43:47;;;;;;;10.60;8.23;;;-1.60;99.90;;;;;;5026232;28;20264;-58
2023/02/28 00:46:15;;;;;;;12.80;8.17;;;-1.60;99.90;;;;;;5028620;28;20210;-58
2023/02/28 00:48:44;;;;;;;15.20;7.97;;;-1.60;99.90;;;;;;5033504;28;20225;-58
2023/02/28 00:51:12;;;;;;;10.57;8.17;;;-1.70;99.90;;;;;;5029945;28;20221;-58
2023/02/28 00:53:42;;;;;;;11.70;7.97;;;-1.70;99.90;;;;;;5033088;28;20241;-58
2023/02/28 00:56:10;;;;;;;11.53;8.13;;;-1.70;99.90;;;;;;5029507;28;20575;-59
2023/02/28 00:58:38;;;;;;;15.33;8.13;;;-1.70;99.90;;;;;;5022967;28;20212;-58
2023/02/28 01:01:06;;;;;;;13.07;8.23;;;-1.80;99.90;;;;;;5033276;28;20552;-59
2023/02/28 01:03:35;;;;;;;13.07;8.17;;;-1.80;99.90;;;;;;5031283;28;20806;-59
2023/02/28 01:06:03;;;;;;;14.47;8.47;;;-1.80;99.90;;;;;;5033010;28;20267;-58
2023/02/28 01:08:31;;;;;;;11.97;8.37;;;-1.80;99.90;;;;;;5015522;28;20229;-59
2023/02/28 01:11:09;;;;;;;13.97;8.73;;;-1.80;99.90;;;;;;5020716;28;20197;-59
2023/02/28 01:13:37;;;;;;;12.70;8.20;;;-1.90;99.90;;;;;;5033694;28;20228;-58
2023/02/28 01:16:07;;;;;;;12.07;8.07;;;-1.90;99.90;;;;;;5033079;28;20217;-59
2023/02/28 01:18:35;;;;;;;13.27;7.93;;;-1.90;99.90;;;;;;5033037;28;20657;-59
2023/02/28 01:21:05;;;;;;;14.43;8.77;;;-1.90;99.90;;;;;;5031372;28;20232;-59
2023/02/28 01:23:33;;;;;;;11.87;7.20;;;-1.90;99.90;;;;;;5031967;28;21110;-58
2023/02/28 01:26:06;;;;;;;11.97;8.50;;;-1.80;99.90;;;;;;5026329;28;20594;-59
2023/02/28 01:28:35;;;;;;;11.50;8.20;;;-1.90;99.90;;;;;;5022815;28;20243;-59
2023/02/28 01:31:04;;;;;;;11.40;7.97;;;-1.90;99.90;;;;;;5021302;28;20287;-59
2023/02/28 01:33:32;;;;;;;15.97;8.50;;;-1.90;99.90;;;;;;5026396;28;20226;-59
2023/02/28 01:36:01;;;;;;;13.13;8.70;;;-1.90;99.90;;;;;;5021851;28;20620;-58
2023/02/28 01:38:30;;;;;;;15.97;8.57;;;-1.90;99.90;;;;;;5030265;28;20217;-59
2023/02/28 01:40:58;;;;;;;13.37;8.53;;;-1.90;99.90;;;;;;5021638;28;20194;-59
2023/02/28 01:43:29;;;;;;;13.10;8.30;;;-2.00;99.90;;;;;;5027343;28;20193;-58
2023/02/28 01:45:59;;;;;;;14.93;8.20;;;-1.90;99.90;;;;;;5030285;28;20726;-58
2023/02/28 01:48:31;;;;;;;13.17;8.03;;;-2.00;99.90;;;;;;5030905;28;20221;-58
2023/02/28 01:51:05;;;;;;;14.80;8.47;;;-1.90;99.90;;;;;;5029382;28;20275;-59
2023/02/28 01:53:38;;;;;;;15.07;8.07;;;-1.90;99.90;;;;;;5028895;28;20283;-58
2023/02/28 01:56:08;;;;;;;13.17;8.37;;;-1.80;99.90;;;;;;5029622;28;20518;-58
2023/02/28 01:58:38;;;;;;;14.07;8.57;;;-1.80;99.90;;;;;;5023902;28;20552;-58
2023/02/28 02:01:06;;;;;;;10.83;7.90;;;-1.80;99.90;;;;;;5029000;28;20274;-59
2023/02/28 02:03:37;;;;;;;11.33;7.93;;;-1.80;99.90;;;;;;5030806;28;20228;-58
2023/02/28 02:06:05;;;;;;;15.57;8.33;;;-1.80;99.90;;;;;;5028650;28;20225;-58
2023/02/28 02:08:33;;;;;;;11.57;8.80;;;-1.90;99.90;;;;;;5033882;28;20221;-58
2023/02/28 02:11:04;;;;;;;14.67;8.80;;;-1.90;99.90;;;;;;5027161;28;20698;-58
2023/02/28 02:13:55;;;;;;;14.13;8.43;;;-1.90;99.90;;;;;;5030514;28;20228;-58
2023/02/28 02:16:37;;;;;;;13.90;9.47;;;-1.90;99.90;;;;;;4998302;28;20273;-58
2023/02/28 02:19:29;;;;;;;12.23;8.97;;;-2.00;99.90;;;;;;4998219;28;20668;-58
2023/02/28 02:22:22;;;;;;;15.93;9.40;;;-2.00;99.90;;;;;;5009869;28;20272;-58
2023/02/28 02:25:07;;;;;;;13.40;8.50;;;-2.10;99.90;;;;;;5018380;28;20727;-58
2023/02/28 02:27:58;;;;;;;13.33;8.37;;;-2.10;99.90;;;;;;5007578;28;20225;-58
2023/02/28 02:31:04;;;;;;;13.77;8.50;;;-2.10;99.90;;;;;;5022233;28;20277;-59
2023/02/28 02:33:53;;;;;;;16.70;8.50;;;-2.10;99.90;;;;;;5035000;28;20268;-58
2023/02/28 02:36:26;;;;;;;13.60;8.87;;;-2.10;99.90;;;;;;5023196;28;20218;-58
2023/02/28 02:39:01;;;;;;;15.53;9.10;;;-2.10;99.90;;;;;;5009012;28;20225;-58
2023/02/28 02:41:36;;;;;;;12.13;8.57;;;-2.10;99.90;;;;;;4998251;28;20272;-58
2023/02/28 02:44:10;;;;;;;16.53;9.30;;;-2.10;99.90;;;;;;5018277;28;20197;-58
2023/02/28 02:46:42;;;;;;;13.17;9.37;;;-2.10;99.90;;;;;;5036728;28;20205;-58
2023/02/28 02:49:16;;;;;;;12.73;9.10;;;-2.20;99.90;;;;;;5034162;28;20220;-59
2023/02/28 02:51:48;;;;;;;12.70;8.87;;;-2.20;99.90;;;;;;5017131;28;20214;-59
2023/02/28 02:54:21;;;;;;;15.38;11.50;;;-2.20;99.90;;;;;;5009230;28;20447;-58
2023/02/28 02:56:52;;;;;;;14.80;10.07;;;-2.20;99.90;;;;;;5010804;28;20237;-58
2023/02/28 02:59:23;;;;;;;16.83;9.30;;;-2.20;99.90;;;;;;5013348;28;20222;-58
2023/02/28 03:01:55;;;;;;;13.63;9.50;;;-2.30;99.90;;;;;;5015751;28;20198;-58
2023/02/28 03:04:27;;;;;;;15.50;9.03;;;-2.30;99.90;;;;;;5003905;28;20513;-59
2023/02/28 03:06:57;;;;;;;15.27;9.83;;;-2.30;99.90;;;;;;5014349;28;20777;-58
2023/02/28 03:09:26;;;;;;;12.90;9.47;;;-2.30;99.90;;;;;;4999743;28;20734;-58
2023/02/28 03:11:57;;;;;;;15.97;9.30;;;-2.40;99.90;;;;;;5015366;28;20218;-58
2023/02/28 03:14:37;;;;;;;16.33;9.40;;;-2.40;99.90;;;;;;5004238;28;20226;-58
2023/02/28 03:17:28;;;;;;;14.23;9.77;;;-2.40;99.90;;;;;;4997941;28;20202;-58
2023/02/28 03:20:06;;;;;;;14.23;10.00;;;-2.40;99.90;;;;;;5010580;28;20202;-57
2023/02/28 03:22:53;;;;;;;16.77;9.90;;;-2.40;99.90;;;;;;5015443;28;20204;-58
2023/02/28 03:25:28;;;;;;;19.60;9.43;;;-2.40;99.90;;;;;;5013137;28;20692;-58
2023/02/28 03:28:04;;;;;;;16.03;9.63;;;-2.40;99.90;;;;;;4994393;28;20624;-60
2023/02/28 03:30:39;;;;;;;13.77;9.53;;;-2.40;99.90;;;;;;5027652;28;20703;-59
2023/02/28 03:33:12;;;;;;;14.70;10.00;;;-2.40;99.90;;;;;;5019314;28;20276;-58
2023/02/28 03:35:45;;;;;;;16.90;9.43;;;-2.50;99.90;;;;;;5015393;28;20704;-59
2023/02/28 03:38:19;;;;;;;15.20;9.80;;;-2.50;99.90;;;;;;5009363;28;20296;-59
2023/02/28 03:40:52;;;;;;;15.13;9.17;;;-2.50;99.90;;;;;;5013219;28;20285;-58
2023/02/28 03:43:26;;;;;;;15.33;10.00;;;-2.50;99.90;;;;;;5034970;28;20614;-59
2023/02/28 03:45:57;;;;;;;12.80;9.70;;;-2.60;99.90;;;;;;5034967;28;20271;-59
2023/02/28 03:48:32;;;;;;;16.37;9.00;;;-2.60;99.90;;;;;;5020631;28;20218;-58
2023/02/28 03:51:23;;;;;;;12.27;8.83;;;-2.60;99.90;;;;;;5034186;28;20216;-58
2023/02/28 03:53:55;;;;;;;14.37;8.93;;;-2.60;99.90;;;;;;5048217;28;20627;-58
2023/02/28 03:56:28;;;;;;;15.60;9.07;;;-2.70;99.90;;;;;;5034997;28;20224;-58
2023/02/28 03:59:01;;;;;;;15.93;9.63;;;-2.70;99.90;;;;;;5036223;28;20202;-58
2023/02/28 04:01:36;;;;;;;15.37;9.67;;;-2.70;99.90;;;;;;5035077;28;20197;-58
2023/02/28 04:04:04;;;;;;;17.90;9.73;;;-2.70;99.90;;;;;;5034504;28;20219;-58
2023/02/28 04:06:34;;;;;;;19.30;9.60;;;-2.70;99.90;;;;;;5037336;28;20248;-58
2023/02/28 04:09:05;;;;;;;15.50;10.17;;;-2.70;99.90;;;;;;5016713;28;20237;-58
2023/02/28 04:11:35;;;;;;;16.57;10.37;;;-2.70;99.90;;;;;;5026723;28;20218;-58
2023/02/28 04:14:04;;;;;;;15.63;10.53;;;-2.70;99.90;;;;;;5025775;28;20235;-59
2023/02/28 04:16:33;;;;;;;17.37;9.90;;;-2.70;99.90;;;;;;5031048;28;20200;-59
2023/02/28 04:19:04;;;;;;;14.77;10.17;;;-2.70;99.90;;;;;;5042099;28;20249;-58
2023/02/28 04:21:35;;;;;;;15.60;10.13;;;-2.70;99.90;;;;;;5033355;28;20312;-58
2023/02/28 04:24:05;;;;;;;16.43;10.03;;;-2.70;99.90;;;;;;5032801;28;20295;-58
2023/02/28 04:26:35;;;;;;;15.57;10.77;;;-2.80;99.90;;;;;;5022525;28;20210;-59
2023/02/28 04:29:05;;;;;;;16.37;9.70;;;-2.80;99.90;;;;;;5033992;28;20197;-58
2023/02/28 04:31:33;;;;;;;19.23;10.40;;;-2.80;99.90;;;;;;5034701;28;20193;-59
2023/02/28 04:34:02;;;;;;;19.77;10.47;;;-2.80;99.90;;;;;;5032559;28;20218;-58
2023/02/28 04:36:30;;;;;;;20.30;10.57;;;-2.90;99.90;;;;;;5033658;28;20723;-58
2023/02/28 04:38:58;;;;;;;15.90;10.33;;;-2.80;99.90;;;;;;5034090;28;20275;-58
2023/02/28 04:41:28;;;;;;;16.83;10.57;;;-2.80;99.90;;;;;;5033040;28;20223;-58
2023/02/28 04:43:59;;;;;;;18.03;10.97;;;-2.70;99.90;;;;;;5033877;28;20629;-59
2023/02/28 04:46:30;;;;;;;19.37;10.33;;;-2.60;99.90;;;;;;5028824;28;20533;-59
2023/02/28 04:48:58;;;;;;;19.97;11.20;;;-2.50;99.90;;;;;;5015059;28;20214;-58
2023/02/28 04:51:27;;;;;;;15.50;10.93;;;-2.40;99.90;;;;;;5021074;28;20218;-58
2023/02/28 04:53:55;;;;;;;20.33;11.40;;;-2.20;99.90;;;;;;5012599;28;20273;-58
2023/02/28 04:56:24;;;;;;;18.60;11.03;;;-2.20;99.90;;;;;;5010145;28;20225;-58
2023/02/28 04:58:54;;;;;;;21.57;11.90;;;-2.10;99.90;;;;;;5013705;28;20233;-58
2023/02/28 05:01:25;;;;;;;21.13;12.30;;;-2.00;99.90;;;;;;5009871;28;20198;-58
2023/02/28 05:03:55;;;;;;;19.20;11.43;;;-1.90;99.90;;;;;;5013918;28;20669;-58
2023/02/28 05:06:25;;;;;;;17.23;10.77;;;-1.80;99.90;;;;;;5014885;28;20562;-58
2023/02/28 05:08:54;;;;;;;18.33;11.80;;;-1.80;99.90;;;;;;5013832;28;20233;-58
2023/02/28 05:11:25;;;;;;;20.70;11.87;;;-1.70;99.90;;;;;;4994044;28;20571;-58
2023/02/28 05:13:55;;;;;;;17.40;11.50;;;-1.60;99.90;;;;;;5011149;28;20210;-58
2023/02/28 05:16:23;;;;;;;22.10;11.13;;;-1.60;99.90;;;;;;5007021;28;20515;-58
2023/02/28 05:18:53;;;;;;;21.73;11.40;;;-1.50;99.90;;;;;;5013338;28;20890;-59
2023/02/28 05:21:28;;;;;;;23.03;12.37;;;-1.50;99.90;;;;;;5010982;28;20236;-59
2023/02/28 05:23:58;;;;;;;22.80;12.20;;;-1.40;99.90;;;;;;5009601;28;20712;-58
2023/02/28 05:26:27;;;;;;;22.03;12.13;;;-1.40;99.90;;;;;;4994165;28;20226;-58
2023/02/28 05:28:57;;;;;;;21.47;12.27;;;-1.30;99.90;;;;;;5001209;28;20186;-58
2023/02/28 05:31:26;;;;;;;25.23;13.53;;;-1.30;99.90;;;;;;5007293;28;20257;-59
2023/02/28 05:33:54;;;;;;;24.77;12.47;;;-1.20;99.90;;;;;;5013251;28;20297;-59
2023/02/28 05:36:23;;;;;;;36.37;14.60;;;-1.20;99.90;;;;;;5007626;28;20241;-58
2023/02/28 05:38:52;;;;;;;23.90;13.23;;;-1.10;99.90;;;;;;5013223;28;20588;-58
2023/02/28 05:41:21;;;;;;;19.77;12.27;;;-1.10;99.90;;;;;;5006450;28;20222;-58
2023/02/28 05:43:49;;;;;;;19.10;12.43;;;-1.00;99.90;;;;;;5007318;28;20254;-58
2023/02/28 05:46:19;;;;;;;16.83;11.83;;;-1.00;99.90;;;;;;5006741;28;20671;-58
2023/02/28 05:48:48;;;;;;;16.77;11.10;;;-0.90;99.90;;;;;;5010075;28;20273;-58
2023/02/28 05:51:17;;;;;;;17.60;10.63;;;-0.90;99.90;;;;;;5011203;28;20217;-59
2023/02/28 05:53:45;;;;;;;17.67;11.23;;;-0.80;99.90;;;;;;5013691;28;20257;-59
2023/02/28 05:56:14;;;;;;;18.77;11.30;;;-0.80;99.90;;;;;;5024922;28;20221;-59
2023/02/28 05:58:42;;;;;;;13.93;10.93;;;-0.80;99.90;;;;;;5018727;28;20187;-58
2023/02/28 06:01:35;;;;;;;19.60;11.20;;;-0.70;99.90;;;;;;5031505;28;20695;-59
2023/02/28 06:04:04;;;;;;;21.80;11.73;;;-0.70;99.90;;;;;;5032633;28;20642;-59
2023/02/28 06:06:34;;;;;;;22.43;11.33;;;-0.60;99.90;;;;;;5026097;28;20301;-59
2023/02/28 06:09:04;;;;;;;19.37;12.20;;;-0.50;99.90;;;;;;5030828;28;20271;-59
2023/02/28 06:11:33;;;;;;;18.47;11.13;;;-0.50;99.90;;;;;;5023469;28;20222;-59
2023/02/28 06:14:02;;;;;;;20.73;11.30;;;-0.40;99.90;;;;;;5013845;28;20198;-58
2023/02/28 06:16:34;;;;;;;15.57;10.10;;;-0.40;99.90;;;;;;5025631;28;20206;-59
2023/02/28 06:19:04;;;;;;;18.60;11.40;;;-0.40;99.90;;;;;;5031736;28;20223;-58
2023/02/28 06:21:32;;;;;;;15.97;10.83;;;-0.30;99.90;;;;;;5031893;28;20229;-59
2023/02/28 06:24:01;;;;;;;16.17;10.43;;;-0.30;99.90;;;;;;5021008;28;20221;-59
2023/02/28 06:26:30;;;;;;;20.87;10.80;;;-0.30;99.90;;;;;;5000288;28;20234;-59
2023/02/28 06:28:58;;;;;;;15.93;10.77;;;-0.20;99.90;;;;;;5007680;28;20195;-59
2023/02/28 06:31:28;;;;;;;18.43;11.10;;;-0.20;99.90;;;;;;5008127;28;20664;-58
2023/02/28 06:33:59;;;;;;;19.77;12.03;;;-0.10;99.90;;;;;;5014437;28;20275;-59
2023/02/28 06:36:27;;;;;;;19.77;11.53;;;-0.10;99.90;;;;;;5017700;28;20632;-58
2023/02/28 06:38:55;;;;;;;20.50;11.23;;;-0.10;99.90;;;;;;5009147;28;20895;-59
2023/02/28 06:41:26;;;;;;;19.43;11.30;;;0.00;99.90;;;;;;5010837;28;20228;-58
2023/02/28 06:43:54;;;;;;;23.33;10.83;;;0.00;99.90;;;;;;5009038;28;20186;-59
2023/02/28 06:46:42;;;;;;;17.50;11.50;;;0.10;99.90;;;;;;5012654;28;20703;-59
2023/02/28 06:49:12;;;;;;;19.20;10.27;;;0.10;99.90;;;;;;5006409;28;20249;-59
2023/02/28 06:51:44;;;;;;;18.80;11.27;;;0.20;99.90;;;;;;5011014;28;20225;-59
2023/02/28 06:54:14;;;;;;;15.73;9.73;;;0.20;99.90;;;;;;5011711;28;20222;-58
2023/02/28 06:56:42;;;;;;;15.67;10.93;;;0.20;99.90;;;;;;5002895;28;20569;-59
2023/02/28 06:59:10;;;;;;;15.07;10.47;;;0.30;99.90;;;;;;5013176;28;20218;-59
2023/02/28 07:01:38;;;;;;;23.40;10.80;;;0.40;99.90;;;;;;5008492;28;20187;-59
2023/02/28 07:04:07;;;;;;;14.57;10.63;;;0.40;99.90;;;;;;5010505;28;20587;-58
2023/02/28 07:06:37;;;;;;;27.33;12.17;;;0.40;99.90;;;;;;5009880;28;20226;-59
2023/02/28 07:09:05;;;;;;;19.37;11.13;;;0.50;99.90;;;;;;5015854;28;20217;-59
2023/02/28 07:11:34;;;;;;;17.77;10.77;;;0.50;99.90;;;;;;5034638;28;20271;-58
2023/02/28 07:14:02;;;;;;;17.47;11.03;;;0.60;99.90;;;;;;5034778;28;20200;-59
2023/02/28 07:16:30;;;;;;;18.10;10.97;;;0.60;99.90;;;;;;5035609;28;20217;-59
2023/02/28 07:18:58;;;;;;;14.10;9.97;;;0.70;99.90;;;;;;5029604;28;20271;-59
2023/02/28 07:21:27;;;;;;;15.53;10.50;;;0.70;99.90;;;;;;5024924;28;20680;-59
2023/02/28 07:23:57;;;;;;;16.20;11.00;;;0.80;99.90;;;;;;5037292;28;20217;-59
2023/02/28 07:26:26;;;;;;;15.57;10.13;;;0.80;99.90;;;;;;5035480;28;20220;-58
2023/02/28 07:28:54;;;;;;;15.23;10.13;;;0.90;99.90;;;;;;5034741;28;20263;-59
2023/02/28 07:31:22;;;;;;;18.30;9.93;;;1.00;99.90;;;;;;5040066;28;20185;-59
2023/02/28 07:33:50;;;;;;;20.07;10.07;;;1.00;99.90;;;;;;5021593;28;20218;-58
2023/02/28 07:36:19;;;;;;;15.50;9.90;;;1.10;99.90;;;;;;5015766;28;20219;-59
2023/02/28 07:38:49;;;;;;;14.83;10.07;;;1.20;99.90;;;;;;5011193;28;20218;-59
2023/02/28 07:41:21;;;;;;;18.30;10.13;;;1.30;99.90;;;;;;5030686;28;20300;-59
2023/02/28 07:43:50;;;;;;;16.77;10.57;;;1.40;99.90;;;;;;5031795;28;20264;-59
2023/02/28 07:46:20;;;;;;;15.93;9.17;;;1.60;99.90;;;;;;5033634;28;20204;-59
2023/02/28 07:48:49;;;;;;;15.03;9.70;;;1.60;99.90;;;;;;5009047;28;20219;-59
2023/02/28 07:51:17;;;;;;;14.60;9.27;;;1.70;99.90;;;;;;5005316;28;20218;-59
2023/02/28 07:53:45;;;;;;;13.60;9.10;;;1.80;99.90;;;;;;5017268;28;20237;-59
2023/02/28 07:56:13;;;;;;;14.83;9.83;;;1.90;99.90;;;;;;5004083;28;21109;-59
2023/02/28 07:58:43;;;;;;;13.97;9.43;;;2.00;99.90;;;;;;5003946;28;20187;-59
2023/02/28 08:01:12;;;;;;;14.93;9.10;;;2.20;99.90;;;;;;5003781;28;20318;-59
2023/02/28 08:03:41;;;;;;;16.50;9.07;;;2.40;99.90;;;;;;4997272;28;20218;-59
2023/02/28 08:06:17;;;;;;;13.23;8.93;;;2.50;99.90;;;;;;5009399;28;20221;-59
2023/02/28 08:08:45;;;;;;;15.67;9.43;;;2.70;99.90;;;;;;5003388;28;20221;-59
2023/02/28 08:11:13;;;;;;;14.63;10.07;;;2.80;99.90;;;;;;5010185;28;20225;-59
2023/02/28 08:13:43;;;;;;;15.87;9.77;;;2.80;99.90;;;;;;5008359;28;20206;-59
2023/02/28 08:16:17;;;;;;;15.07;9.40;;;2.80;99.90;;;;;;4994403;28;20233;-59
2023/02/28 08:18:45;;;;;;;19.00;10.13;;;2.80;99.90;;;;;;5000488;28;20636;-59
2023/02/28 08:21:14;;;;;;;13.37;8.57;;;3.00;99.90;;;;;;4997351;28;20577;-59
2023/02/28 08:23:42;;;;;;;13.90;9.23;;;3.00;99.90;;;;;;5004796;28;20277;-60
2023/02/28 08:26:11;;;;;;;13.90;8.77;;;2.90;99.90;;;;;;5005203;28;20299;-59
2023/02/28 08:28:39;;;;;;;12.53;8.13;;;2.90;99.90;;;;;;5007821;28;20202;-59
2023/02/28 08:31:11;;;;;;;14.03;8.30;;;2.90;99.90;;;;;;5007360;28;20246;-59
2023/02/28 08:33:40;;;;;;;13.20;8.10;;;3.00;99.90;;;;;;5001077;28;20221;-59
2023/02/28 08:36:09;;;;;;;13.10;7.83;;;2.90;99.90;;;;;;5005173;28;20305;-59
2023/02/28 08:38:38;;;;;;;10.53;7.20;;;3.00;99.90;;;;;;5012903;28;20221;-59
2023/02/28 08:41:08;;;;;;;10.20;7.40;;;3.00;99.90;;;;;;5024578;28;20620;-59
2023/02/28 08:43:37;;;;;;;12.70;6.60;;;3.10;99.90;;;;;;5011851;28;20220;-59
2023/02/28 08:46:06;;;;;;;10.80;7.60;;;3.30;99.90;;;;;;5025303;28;20225;-59
2023/02/28 08:48:38;;;;;;;9.43;6.50;;;3.30;99.90;;;;;;5012081;28;20739;-59
2023/02/28 08:51:09;;;;;;;15.57;6.63;;;3.50;99.90;;;;;;5025726;28;20301;-60
2023/02/28 08:53:39;;;;;;;7.27;6.10;;;3.70;99.90;;;;;;5028146;28;20229;-59
2023/02/28 08:56:09;;;;;;;14.00;6.07;;;3.80;99.90;;;;;;5021414;28;20193;-59
2023/02/28 08:58:38;;;;;;;9.37;5.93;;;3.90;99.90;;;;;;5027089;28;20251;-59
2023/02/28 09:01:11;;;;;;;19.37;6.23;;;3.90;99.90;;;;;;5026167;28;20283;-60
2023/02/28 09:03:46;;;;;;;9.77;6.00;;;4.00;99.90;;;;;;5025832;28;20259;-59
2023/02/28 09:06:15;;;;;;;5.93;5.43;;;4.00;99.90;;;;;;5026715;28;20218;-59
2023/02/28 09:08:43;;;;;;;6.57;5.60;;;3.90;99.90;;;;;;5024223;28;20218;-59
2023/02/28 09:11:12;;;;;;;10.37;6.40;;;3.90;99.90;;;;;;5023676;28;20282;-59
2023/02/28 09:13:41;;;;;;;8.30;5.47;;;3.90;99.90;;;;;;5029468;28;20200;-59
2023/02/28 09:16:12;;;;;;;5.90;5.30;;;4.00;99.90;;;;;;5030633;28;20217;-59
2023/02/28 09:18:42;;;;;;;5.43;5.00;;;4.00;99.90;;;;;;5030050;28;20217;-59
2023/02/28 09:21:14;;;;;;;8.80;4.83;;;4.00;99.90;;;;;;5030186;28;20316;-59
2023/02/28 09:23:43;;;;;;;6.77;4.83;;;4.10;99.90;;;;;;5022001;28;20733;-59
2023/02/28 09:26:16;;;;;;;9.60;4.50;;;3.90;99.90;;;;;;5023666;28;20281;-59
2023/02/28 09:28:44;;;;;;;4.50;4.10;;;4.00;99.90;;;;;;5020144;28;20663;-59
2023/02/28 09:31:14;;;;;;;5.90;4.57;;;4.00;99.90;;;;;;5026188;28;20213;-59
2023/02/28 09:33:44;;;;;;;4.37;3.90;;;4.30;99.90;;;;;;5024373;28;20316;-59
2023/02/28 09:36:12;;;;;;;4.27;4.00;;;4.30;99.90;;;;;;5025861;28;20353;-59
2023/02/28 09:38:41;;;;;;;4.23;3.93;;;4.30;99.90;;;;;;5026645;28;20697;-59
2023/02/28 09:41:14;;;;;;;4.10;3.70;;;4.30;99.90;;;;;;5016785;28;20225;-59
2023/02/28 09:43:47;;;;;;;4.27;3.70;;;4.20;99.90;;;;;;5021998;28;20621;-60
2023/02/28 09:46:28;;;;;;;3.83;3.53;;;4.30;99.90;;;;;;5023594;28;20210;-59
2023/02/28 09:49:01;;;;;;;5.13;3.67;;;4.30;99.90;;;;;;5024401;28;20217;-60
2023/02/28 09:51:41;;;;;;;4.03;3.70;;;4.70;99.90;;;;;;5027981;28;20574;-60
2023/02/28 09:54:18;;;;;;;3.70;3.40;;;5.20;99.90;;;;;;5025522;28;20273;-60
2023/02/28 09:56:52;;;;;;;4.37;3.10;;;6.20;99.90;;;;;;5026993;28;20217;-60
2023/02/28 09:59:41;;;;;;;3.53;3.33;;;7.10;99.90;;;;;;5028110;28;20363;-61
2023/02/28 10:02:22;;;;;;;5.70;3.47;;;7.30;99.90;;;;;;5022673;28;20226;-60
2023/02/28 10:04:57;;;;;;;5.00;3.63;;;7.30;99.90;;;;;;5022453;28;20200;-60
2023/02/28 10:07:42;;;;;;;4.03;3.53;;;7.90;99.90;;;;;;5027934;28;20185;-61
2023/02/28 10:10:20;;;;;;;4.13;3.60;;;8.20;99.90;;;;;;5026631;28;20241;-61
2023/02/28 10:12:52;;;;;;;5.87;3.80;;;8.00;99.90;;;;;;5023269;28;20213;-61
2023/02/28 10:15:26;;;;;;;3.63;3.40;;;8.40;99.90;;;;;;5012876;28;20263;-61
2023/02/28 10:17:58;;;;;;;4.00;3.60;;;9.00;99.90;;;;;;5024864;28;20587;-61
2023/02/28 10:20:40;;;;;;;3.50;3.20;;;8.80;99.90;;;;;;5028760;28;20221;-61
2023/02/28 10:23:15;;;;;;;3.50;3.20;;;8.80;99.90;;;;;;5028148;28;20579;-61
2023/02/28 10:25:48;;;;;;;3.50;2.97;;;8.70;99.90;;;;;;5018094;28;20263;-61
2023/02/28 10:28:18;;;;;;;6.67;2.80;;;9.00;99.90;;;;;;5020161;28;20700;-61
2023/02/28 10:30:49;;;;;;;2.90;2.70;;;9.20;99.90;;;;;;5024965;28;20295;-61
2023/02/28 10:33:24;;;;;;;2.70;2.60;;;9.10;99.90;;;;;;5027001;28;20217;-61
2023/02/28 10:35:55;;;;;;;3.43;2.50;;;8.70;99.90;;;;;;5008389;28;20697;-61
2023/02/28 10:38:25;;;;;;;3.37;2.80;;;8.60;99.90;;;;;;5023824;28;20243;-61
2023/02/28 10:41:04;;;;;;;2.93;2.83;;;9.00;99.90;;;;;;5026022;28;20239;-61
2023/02/28 10:43:32;;;;;;;5.63;2.80;;;8.70;99.90;;;;;;5030053;28;20217;-61
2023/02/28 10:46:05;;;;;;;2.57;2.47;;;8.80;99.90;;;;;;5019312;28;20230;-61
2023/02/28 10:48:36;;;;;;;3.10;2.93;;;8.50;99.90;;;;;;5010508;28;20217;-61
2023/02/28 10:51:08;;;;;;;3.10;2.90;;;7.90;99.90;;;;;;5027961;28;20298;-61
2023/02/28 10:53:40;;;;;;;2.73;2.63;;;8.10;99.90;;;;;;5026608;28;20617;-61
2023/02/28 10:56:29;;;;;;;3.17;2.97;;;8.50;99.90;;;;;;5027272;28;20218;-61
2023/02/28 10:59:00;;;;;;;3.10;2.90;;;8.60;99.90;;;;;;5027583;28;20207;-61
2023/02/28 11:01:37;;;;;;;2.90;2.70;;;8.80;99.90;;;;;;5023779;28;20198;-61
2023/02/28 11:04:19;;;;;;;3.27;2.67;;;9.00;99.90;;;;;;5025989;28;20225;-61
2023/02/28 11:06:57;;;;;;;2.50;2.40;;;9.10;99.90;;;;;;5020187;28;20236;-61
2023/02/28 11:09:30;;;;;;;2.90;2.80;;;8.90;99.90;;;;;;5021735;28;20657;-61
2023/02/28 11:11:58;;;;;;;2.70;2.60;;;9.30;99.90;;;;;;5029111;28;20675;-61
2023/02/28 11:14:29;;;;;;;3.03;2.83;;;9.20;99.90;;;;;;5025328;28;20564;-61
2023/02/28 11:17:12;;;;;;;3.10;2.90;;;8.90;99.90;;;;;;5019447;28;20305;-61
2023/02/28 11:19:46;;;;;;;2.90;2.70;;;8.80;99.90;;;;;;5026859;28;20256;-61
2023/02/28 11:22:21;;;;;;;3.17;2.90;;;8.80;99.90;;;;;;5022746;28;20637;-61
2023/02/28 11:24:54;;;;;;;4.17;2.60;;;8.60;99.90;;;;;;5022714;28;20216;-61
2023/02/28 11:27:47;;;;;;;2.70;2.60;;;8.20;99.90;;;;;;5024527;28;20913;-61
2023/02/28 11:30:29;;;;;;;2.80;2.70;;;8.60;99.90;;;;;;5028693;28;20267;-61
2023/02/28 11:32:58;;;;;;;2.83;2.43;;;9.10;99.90;;;;;;5027515;28;20229;-61
2023/02/28 11:35:31;;;;;;;2.70;2.60;;;9.20;98.40;;;;;;5026636;28;20213;-61
2023/02/28 11:38:02;;;;;;;2.60;2.50;;;9.30;98.90;;;;;;5007871;28;20653;-61
2023/02/28 11:40:37;;;;;;;2.80;2.70;;;9.00;97.70;;;;;;5027370;28;20252;-61
2023/02/28 11:43:20;;;;;;;2.50;2.30;;;8.90;98.10;;;;;;5026118;28;20609;-62
2023/02/28 11:46:05;;;;;;;3.53;2.70;;;9.30;99.10;;;;;;5023050;28;20960;-61
2023/02/28 11:48:43;;;;;;;2.93;2.73;;;9.40;97.40;;;;;;5012836;28;20326;-61
2023/02/28 11:51:21;;;;;;;2.80;2.60;;;9.50;96.80;;;;;;5017011;28;20328;-61
2023/02/28 11:54:34;;;;;;;2.87;2.70;;;9.80;97.80;;;;;;5017326;28;20703;-61
2023/02/28 11:57:12;;;;;;;2.77;2.67;;;9.90;96.70;;;;;;5005830;28;20225;-61
2023/02/28 11:59:56;;;;;;;2.70;2.60;;;9.30;96.10;;;;;;5001965;28;20218;-62
2023/02/28 12:02:29;;;;;;;2.33;2.20;;;9.90;95.90;;;;;;5000713;28;20237;-61
2023/02/28 12:05:14;;;;;;;2.40;2.30;;;9.60;95.30;;;;;;4998130;28;20237;-61
2023/02/28 12:07:53;;;;;;;2.67;2.53;;;9.50;95.00;;;;;;5006074;28;20194;-61
2023/02/28 12:10:26;;;;;;;2.40;2.30;;;9.70;94.50;;;;;;5005809;28;20681;-61
2023/02/28 12:13:09;;;;;;;2.43;2.33;;;9.50;94.10;;;;;;4998328;28;20215;-61
2023/02/28 12:15:50;;;;;;;2.70;2.60;;;9.40;95.80;;;;;;5001519;28;20283;-61
2023/02/28 12:18:31;;;;;;;3.67;2.87;;;9.30;95.00;;;;;;5006381;28;20222;-61
2023/02/28 12:21:05;;;;;;;3.00;2.90;;;9.00;95.20;;;;;;5006537;28;20300;-61
2023/02/28 12:23:50;;;;;;;5.57;2.63;;;9.30;95.90;;;;;;5006356;28;20704;-61
2023/02/28 12:26:25;;;;;;;3.40;2.70;;;9.60;95.20;;;;;;5004165;28;20276;-61
2023/02/28 12:29:02;;;;;;;3.40;2.60;;;9.30;94.20;;;;;;5004557;28;20209;-61
2023/02/28 12:31:35;;;;;;;3.53;3.23;;;8.70;94.80;;;;;;4989975;28;20201;-61
2023/02/28 12:34:09;;;;;;;3.07;2.97;;;8.90;95.00;;;;;;5009252;28;20253;-61
2023/02/28 12:36:39;;;;;;;3.50;2.77;;;8.80;95.20;;;;;;5010634;28;20294;-61
2023/02/28 12:39:13;;;;;;;3.73;3.43;;;9.10;95.30;;;;;;5007726;28;20218;-61
2023/02/28 12:41:48;;;;;;;3.40;3.10;;;9.00;95.00;;;;;;5008346;28;20607;-61
2023/02/28 12:44:21;;;;;;;3.80;3.50;;;8.70;95.90;;;;;;5004314;28;20249;-61
2023/02/28 12:46:54;;;;;;;3.57;3.27;;;8.80;95.60;;;;;;5009650;28;20197;-59
2023/02/28 12:49:30;;;;;;;2.80;2.70;;;8.70;95.40;;;;;;5007029;28;20202;-61
2023/02/28 12:52:01;;;;;;;3.13;2.80;;;8.90;95.80;;;;;;5008555;28;20267;-61
2023/02/28 12:54:37;;;;;;;3.33;3.10;;;8.60;95.60;;;;;;5006053;28;20237;-61
2023/02/28 12:57:15;;;;;;;3.20;3.10;;;8.30;95.60;;;;;;5007145;28;20259;-60
2023/02/28 12:59:50;;;;;;;3.10;2.80;;;8.20;96.60;;;;;;5007775;28;20226;-60
2023/02/28 13:02:51;;;;;;;2.90;2.80;;;8.20;96.00;;;;;;5008864;28;20218;-61
2023/02/28 13:06:06;;;;;;;3.43;3.13;;;8.30;96.10;;;;;;5005347;28;20252;-61
2023/02/28 13:09:01;;;;;;;6.23;3.30;;;8.20;96.30;;;;;;4948038;28;20223;-61
2023/02/28 13:11:32;;;;;;;3.43;3.07;;;8.20;96.40;;;;;;4958787;28;20220;-61